Time;durP1;ratioP1;P1;durP2;ratioP2;P2;SDS_P1;SDS_P2;PMS_P1;PMS_P2;Temp;Humidity;BMP_temperature;BMP_pressure;BME280_temperature;BME280_humidity;BME280_pressure;Samples;Min_cycle;Max_cycle;Signal;HPM_P1;HPM_P2
2023/11/24 00:02:20;;;;;;;0.40;0.40;;;;;;;9.25;100.00;96596.91;5024550;28;20099;-70
2023/11/24 00:04:47;;;;;;;0.40;0.40;;;;;;;8.91;100.00;96531.66;5024669;28;20053;-70
2023/11/24 00:07:17;;;;;;;0.40;0.40;;;;;;;8.70;100.00;96482.44;5024342;28;20599;-69
2023/11/24 00:09:44;;;;;;;0.40;0.40;;;;;;;8.81;100.00;96511.00;5024728;28;20061;-68
2023/11/24 00:12:11;;;;;;;0.47;0.47;;;;;;;7.73;100.00;96356.31;5024254;28;20060;-69
2023/11/24 00:14:38;;;;;;;0.40;0.40;;;;;;;7.65;100.00;96299.50;5007128;28;20445;-69
2023/11/24 00:17:06;;;;;;;0.50;0.50;;;;;;;8.78;100.00;96467.56;5006094;28;20061;-71
2023/11/24 00:19:32;;;;;;;0.50;0.50;;;;;;;9.15;100.00;96509.13;5024961;28;20056;-70
2023/11/24 00:21:59;;;;;;;0.40;0.40;;;;;;;7.55;100.00;96272.59;5024179;28;20153;-71
2023/11/24 00:24:27;;;;;;;0.40;0.40;;;;;;;8.52;100.00;96400.53;5024696;28;20420;-71
2023/11/24 00:26:53;;;;;;;0.50;0.50;;;;;;;9.67;100.00;96542.19;5024608;28;20463;-68
2023/11/24 00:29:21;;;;;;;0.40;0.40;;;;;;;9.65;100.00;96549.25;5024559;28;20059;-68
2023/11/24 00:31:48;;;;;;;0.40;0.40;;;;;;;9.69;100.00;96550.91;5024334;28;20054;-69
2023/11/24 00:34:15;;;;;;;0.50;0.50;;;;;;;9.66;100.00;96546.13;5024323;28;20064;-69
2023/11/24 00:36:42;;;;;;;0.40;0.40;;;;;;;9.72;100.00;96533.53;5006431;28;20045;-69
2023/11/24 00:39:08;;;;;;;0.40;0.40;;;;;;;9.30;100.00;96488.78;5024436;28;20054;-69
2023/11/24 00:41:35;;;;;;;0.40;0.40;;;;;;;9.85;100.00;96534.88;5006471;28;20049;-69
2023/11/24 00:44:02;;;;;;;0.50;0.50;;;;;;;9.64;100.00;96493.16;5006442;28;20052;-70
2023/11/24 00:46:29;;;;;;;0.40;0.40;;;;;;;9.78;100.00;96523.75;5006311;28;20068;-68
2023/11/24 00:48:59;;;;;;;0.40;0.40;;;;;;;9.88;100.00;96525.84;5006463;28;20140;-69
2023/11/24 00:51:25;;;;;;;0.40;0.40;;;;;;;9.81;100.00;96508.38;5023574;28;20133;-70
2023/11/24 00:53:53;;;;;;;0.45;0.45;;;;;;;9.76;100.00;96505.94;5053369;28;20052;-68
2023/11/24 00:56:20;;;;;;;0.43;0.43;;;;;;;9.76;100.00;96495.69;5063606;28;20139;-69
2023/11/24 00:58:48;;;;;;;0.50;0.50;;;;;;;8.87;100.00;96365.91;5064057;28;20056;-69
2023/11/24 01:01:15;;;;;;;0.40;0.40;;;;;;;9.39;100.00;96458.91;5063712;28;20052;-68
2023/11/24 01:03:42;;;;;;;0.40;0.40;;;;;;;9.52;100.00;96449.19;5063527;28;20058;-70
2023/11/24 01:06:09;;;;;;;0.50;0.50;;;;;;;9.71;100.00;96471.13;5065406;28;20699;-69
2023/11/24 01:08:35;;;;;;;0.50;0.50;;;;;;;9.47;100.00;96427.41;5067731;28;20063;-69
2023/11/24 01:11:02;;;;;;;0.40;0.40;;;;;;;9.20;100.00;96448.00;5067611;28;20063;-70
2023/11/24 01:13:32;;;;;;;0.50;0.50;;;;;;;9.75;100.00;96455.38;5067878;28;20051;-69
2023/11/24 01:16:00;;;;;;;0.50;0.50;;;;;;;9.50;100.00;96448.75;5068104;28;20055;-68
2023/11/24 01:18:27;;;;;;;0.40;0.40;;;;;;;9.44;100.00;96441.97;5065736;28;20052;-70
2023/11/24 01:20:54;;;;;;;0.50;0.50;;;;;;;8.46;100.00;96283.34;5067878;28;20356;-69
2023/11/24 01:23:22;;;;;;;0.50;0.50;;;;;;;9.51;100.00;96432.97;5066160;28;20151;-70
2023/11/24 01:25:48;;;;;;;0.50;0.50;;;;;;;9.62;100.00;96440.22;5067821;28;20055;-69
2023/11/24 01:28:15;;;;;;;0.40;0.40;;;;;;;9.74;100.00;96442.72;5067464;28;20066;-69
2023/11/24 01:30:43;;;;;;;0.50;0.50;;;;;;;9.75;100.00;96444.31;5067439;28;20053;-69
2023/11/24 01:33:10;;;;;;;0.40;0.40;;;;;;;9.04;100.00;96365.31;5067452;28;20049;-68
2023/11/24 01:35:37;;;;;;;0.50;0.50;;;;;;;9.44;100.00;96417.09;5082417;28;20443;-68
2023/11/24 01:38:03;;;;;;;0.40;0.40;;;;;;;9.05;100.00;96421.38;5067156;28;20127;-69
2023/11/24 01:40:30;;;;;;;0.40;0.40;;;;;;;8.63;100.00;96407.00;5065688;28;20052;-68
2023/11/24 01:42:57;;;;;;;0.40;0.40;;;;;;;8.76;100.00;96408.34;5067002;28;20051;-69
2023/11/24 01:45:24;;;;;;;0.43;0.43;;;;;;;8.86;100.00;96407.72;5067110;28;20631;-68
2023/11/24 01:47:52;;;;;;;0.50;0.50;;;;;;;8.83;100.00;96397.41;5067022;28;20551;-69
2023/11/24 01:50:19;;;;;;;0.40;0.40;;;;;;;8.56;100.00;96359.97;5067106;28;20056;-69
2023/11/24 01:52:48;;;;;;;0.40;0.40;;;;;;;8.66;100.00;96392.47;5066759;28;20044;-69
2023/11/24 01:55:16;;;;;;;0.40;0.40;;;;;;;8.63;100.00;96387.69;5067133;28;20268;-70
2023/11/24 01:57:44;;;;;;;0.40;0.40;;;;;;;8.65;100.00;96390.84;5066855;28;20060;-69
2023/11/24 02:00:13;;;;;;;0.40;0.40;;;;;;;8.26;100.00;96381.22;5066784;28;20048;-69
2023/11/24 02:02:41;;;;;;;0.40;0.40;;;;;;;8.46;100.00;96377.16;5065193;28;20138;-69
2023/11/24 02:05:09;;;;;;;0.32;0.32;;;;;;;8.57;100.00;96367.88;5049042;28;20052;-69
2023/11/24 02:07:36;;;;;;;0.40;0.40;;;;;;;8.03;100.00;96270.16;5048958;28;20052;-69
2023/11/24 02:10:04;;;;;;;0.40;0.40;;;;;;;6.94;100.00;96087.47;5066701;28;20048;-70
2023/11/24 02:12:31;;;;;;;0.40;0.40;;;;;;;8.82;100.00;96357.19;5066972;28;20056;-69
2023/11/24 02:14:57;;;;;;;0.40;0.40;;;;;;;8.17;100.00;96248.25;5066623;28;20051;-69
2023/11/24 02:17:24;;;;;;;0.40;0.40;;;;;;;8.12;100.00;96230.09;5064586;28;20057;-69
2023/11/24 02:19:51;;;;;;;0.40;0.40;;;;;;;8.89;100.00;96351.72;5067002;28;20051;-69
2023/11/24 02:22:18;;;;;;;0.40;0.40;;;;;;;8.61;100.00;96340.34;5065805;28;20127;-69
2023/11/24 02:24:45;;;;;;;0.40;0.40;;;;;;;7.25;100.00;96222.09;5066486;28;20113;-69
2023/11/24 02:27:13;;;;;;;0.40;0.40;;;;;;;7.89;100.00;96341.63;5066420;28;20502;-69
2023/11/24 02:29:40;;;;;;;0.40;0.40;;;;;;;8.22;100.00;96338.97;5064698;28;20087;-69
2023/11/24 02:32:08;;;;;;;0.40;0.40;;;;;;;8.44;100.00;96329.84;5066137;28;20291;-70
2023/11/24 02:34:35;;;;;;;0.40;0.40;;;;;;;7.94;100.00;96321.97;5066297;28;20558;-70
2023/11/24 02:37:02;;;;;;;0.40;0.40;;;;;;;8.26;100.00;96317.78;5065904;28;20048;-69
2023/11/24 02:39:29;;;;;;;0.40;0.40;;;;;;;8.17;100.00;96323.50;5064680;28;20136;-68
2023/11/24 02:41:56;;;;;;;0.40;0.40;;;;;;;7.57;100.00;96325.34;5047710;28;20048;-69
2023/11/24 02:44:22;;;;;;;0.30;0.30;;;;;;;7.27;100.00;96310.66;5066030;28;20052;-68
2023/11/24 02:46:49;;;;;;;0.32;0.32;;;;;;;7.30;100.00;96320.16;5047756;28;20503;-69
2023/11/24 02:49:16;;;;;;;0.40;0.40;;;;;;;6.79;100.00;96253.53;5065401;28;20057;-68
2023/11/24 02:51:43;;;;;;;0.40;0.40;;;;;;;7.37;100.00;96310.06;5065634;28;20040;-68
2023/11/24 02:54:10;;;;;;;0.30;0.30;;;;;;;7.70;100.00;96301.94;5081019;28;20078;-69
2023/11/24 02:56:37;;;;;;;0.40;0.40;;;;;;;7.15;100.00;96191.63;5065295;28;20519;-68
2023/11/24 02:59:04;;;;;;;0.40;0.40;;;;;;;7.61;100.00;96234.47;5054861;28;20060;-69
2023/11/24 03:01:31;;;;;;;0.40;0.40;;;;;;;7.65;100.00;96268.38;5045519;28;20077;-68
2023/11/24 03:03:58;;;;;;;0.40;0.40;;;;;;;7.29;100.00;96296.50;5045537;28;20447;-69
2023/11/24 03:06:25;;;;;;;0.40;0.40;;;;;;;7.20;100.00;96287.69;5045296;28;20095;-68
2023/11/24 03:08:51;;;;;;;0.40;0.40;;;;;;;7.51;100.00;96277.22;5045509;28;20115;-68
2023/11/24 03:11:19;;;;;;;0.40;0.40;;;;;;;7.81;100.00;96271.00;5045209;28;20083;-70
2023/11/24 03:13:46;;;;;;;0.40;0.40;;;;;;;7.71;100.00;96226.34;5045935;28;20053;-69
2023/11/24 03:16:13;;;;;;;0.40;0.40;;;;;;;8.12;100.00;96265.13;5027723;28;20160;-69
2023/11/24 03:18:39;;;;;;;0.40;0.40;;;;;;;8.23;100.00;96268.88;5045231;28;20106;-69
2023/11/24 03:21:06;;;;;;;0.40;0.40;;;;;;;8.21;100.00;96246.34;5027202;28;20459;-68
2023/11/24 03:23:34;;;;;;;0.40;0.40;;;;;;;5.49;100.00;95796.84;5043570;28;20515;-67
2023/11/24 03:26:02;;;;;;;0.40;0.40;;;;;;;8.51;100.00;96252.66;5045201;28;20088;-70
2023/11/24 03:28:30;;;;;;;0.40;0.40;;;;;;;8.47;100.00;96246.31;5044782;28;20072;-69
2023/11/24 03:30:57;;;;;;;0.40;0.40;;;;;;;8.44;100.00;96219.47;5045027;28;20466;-69
2023/11/24 03:33:23;;;;;;;0.40;0.40;;;;;;;8.43;100.00;96207.63;5044513;28;20056;-68
2023/11/24 03:35:50;;;;;;;0.40;0.40;;;;;;;8.00;100.00;96131.03;5044655;28;20577;-68
2023/11/24 03:38:17;;;;;;;0.40;0.40;;;;;;;8.58;100.00;96222.41;5044468;28;20049;-69
2023/11/24 03:40:45;;;;;;;0.40;0.40;;;;;;;7.45;100.00;96036.25;5043303;28;20534;-69
2023/11/24 03:43:13;;;;;;;0.47;0.47;;;;;;;8.37;100.00;96208.34;5045062;28;20045;-68
2023/11/24 03:45:40;;;;;;;0.40;0.40;;;;;;;8.56;100.00;96210.94;5044611;28;20076;-68
2023/11/24 03:48:07;;;;;;;0.40;0.40;;;;;;;8.29;100.00;96162.53;5043366;28;20057;-67
2023/11/24 03:50:34;;;;;;;0.40;0.40;;;;;;;8.15;100.00;96176.13;5026987;28;20302;-69
2023/11/24 03:53:00;;;;;;;0.40;0.40;;;;;;;8.34;100.00;96198.06;5052368;28;20062;-69
2023/11/24 03:55:27;;;;;;;0.40;0.40;;;;;;;8.31;100.00;96196.88;5063110;28;20053;-69
2023/11/24 03:57:54;;;;;;;0.40;0.40;;;;;;;7.83;100.00;96117.81;5064642;28;20106;-69
2023/11/24 04:00:21;;;;;;;0.40;0.40;;;;;;;8.34;100.00;96187.03;5064479;28;20491;-69
2023/11/24 04:02:48;;;;;;;0.40;0.40;;;;;;;8.10;100.00;96159.91;5062688;28;20136;-68
2023/11/24 04:05:16;;;;;;;0.40;0.40;;;;;;;8.34;100.00;96200.81;5064637;28;20056;-68
2023/11/24 04:07:43;;;;;;;0.40;0.40;;;;;;;8.06;100.00;96167.34;5063982;28;20084;-68
2023/11/24 04:10:10;;;;;;;0.40;0.40;;;;;;;8.09;100.00;96188.66;5064438;28;20060;-69
2023/11/24 04:12:37;;;;;;;0.40;0.40;;;;;;;7.77;100.00;96115.78;5064475;28;20056;-69
2023/11/24 04:15:04;;;;;;;0.40;0.40;;;;;;;7.66;100.00;96129.44;5064811;28;20132;-69
2023/11/24 04:17:31;;;;;;;0.40;0.40;;;;;;;8.10;100.00;96184.72;5063943;28;20057;-69
2023/11/24 04:19:58;;;;;;;0.40;0.40;;;;;;;8.05;100.00;96183.09;5079697;28;20056;-69
2023/11/24 04:22:25;;;;;;;0.40;0.40;;;;;;;8.01;100.00;96189.75;5063919;28;20067;-69
2023/11/24 04:24:53;;;;;;;0.50;0.50;;;;;;;7.59;100.00;96123.81;5064293;28;20059;-69
2023/11/24 04:27:19;;;;;;;0.40;0.40;;;;;;;7.23;100.00;96067.44;5079526;28;20049;-69
2023/11/24 04:29:46;;;;;;;0.40;0.40;;;;;;;8.10;100.00;96198.50;5062844;28;20045;-68
2023/11/24 04:32:13;;;;;;;0.40;0.40;;;;;;;8.17;100.00;96171.81;5064038;28;20465;-68
2023/11/24 04:34:39;;;;;;;0.40;0.40;;;;;;;7.93;100.00;96160.50;5079032;28;20507;-68
2023/11/24 04:37:07;;;;;;;0.40;0.40;;;;;;;7.94;100.00;96162.06;5062737;28;20049;-68
2023/11/24 04:39:34;;;;;;;0.40;0.40;;;;;;;8.10;100.00;96188.28;5064100;28;20053;-69
2023/11/24 04:42:01;;;;;;;0.40;0.40;;;;;;;7.43;100.00;96090.94;5061749;28;20675;-69
2023/11/24 04:44:28;;;;;;;0.40;0.40;;;;;;;8.05;100.00;96174.81;5063782;28;20044;-67
2023/11/24 04:46:55;;;;;;;0.40;0.40;;;;;;;8.08;100.00;96179.59;5064015;28;20059;-68
2023/11/24 04:49:22;;;;;;;0.40;0.40;;;;;;;6.25;100.00;95900.09;5064437;28;20059;-70
2023/11/24 04:51:49;;;;;;;0.40;0.40;;;;;;;7.54;100.00;96105.66;5063789;28;20052;-70
2023/11/24 04:54:15;;;;;;;0.40;0.40;;;;;;;7.48;100.00;96107.13;5063986;28;20106;-68
2023/11/24 04:56:42;;;;;;;0.40;0.40;;;;;;;7.72;100.00;96128.72;5063353;28;20606;-67
2023/11/24 04:59:09;;;;;;;0.40;0.40;;;;;;;7.42;100.00;96108.63;5063781;28;20052;-69
2023/11/24 05:01:35;;;;;;;0.40;0.40;;;;;;;7.87;100.00;96184.03;5045550;28;20523;-70
2023/11/24 05:04:03;;;;;;;0.40;0.40;;;;;;;7.85;100.00;96180.84;5045602;28;20048;-70
2023/11/24 05:06:30;;;;;;;0.40;0.40;;;;;;;6.96;100.00;96057.63;5063101;28;20129;-68
2023/11/24 05:08:56;;;;;;;0.40;0.40;;;;;;;7.35;100.00;96119.53;5063736;28;20066;-70
2023/11/24 05:11:23;;;;;;;0.40;0.40;;;;;;;6.04;100.00;95900.56;5045412;28;20052;-69
2023/11/24 05:13:50;;;;;;;0.40;0.40;;;;;;;7.78;100.00;96169.75;5045481;28;20477;-68
2023/11/24 05:16:16;;;;;;;0.40;0.40;;;;;;;7.72;100.00;96161.81;5063331;28;20056;-68
2023/11/24 05:18:44;;;;;;;0.40;0.40;;;;;;;7.69;100.00;96148.78;5063530;28;20563;-68
2023/11/24 05:21:10;;;;;;;0.40;0.40;;;;;;;7.79;100.00;96166.63;5063512;28;20057;-67
2023/11/24 05:23:37;;;;;;;0.40;0.40;;;;;;;7.82;100.00;96167.81;5063410;28;20128;-69
2023/11/24 05:26:04;;;;;;;0.40;0.40;;;;;;;7.50;100.00;96165.44;5063100;28;20060;-68
2023/11/24 05:28:31;;;;;;;0.35;0.35;;;;;;;6.95;100.00;96122.09;5063192;28;20518;-67
2023/11/24 05:30:58;;;;;;;0.40;0.40;;;;;;;6.52;100.00;96092.28;5063245;28;20060;-68
2023/11/24 05:33:24;;;;;;;0.40;0.40;;;;;;;6.67;100.00;96094.09;5063206;28;20080;-69
2023/11/24 05:35:51;;;;;;;0.30;0.30;;;;;;;7.03;100.00;96156.84;5062776;28;20056;-68
2023/11/24 05:38:18;;;;;;;0.40;0.40;;;;;;;6.93;100.00;96162.97;5052005;28;20048;-70
2023/11/24 05:40:45;;;;;;;0.40;0.40;;;;;;;6.83;100.00;96155.31;5062217;28;20566;-70
2023/11/24 05:43:12;;;;;;;0.35;0.35;;;;;;;6.78;100.00;96155.63;5061530;28;20071;-69
2023/11/24 05:45:39;;;;;;;0.40;0.40;;;;;;;6.75;100.00;96128.84;5061692;28;20335;-69
2023/11/24 05:48:06;;;;;;;0.40;0.40;;;;;;;6.80;100.00;96147.78;5061019;28;20060;-68
2023/11/24 05:50:33;;;;;;;0.35;0.35;;;;;;;6.87;100.00;96152.63;5069520;28;20083;-67
2023/11/24 05:52:59;;;;;;;0.40;0.40;;;;;;;6.82;100.00;96156.47;5083893;28;20059;-68
2023/11/24 05:55:26;;;;;;;0.40;0.40;;;;;;;6.11;100.00;96073.88;5085294;28;20597;-68
2023/11/24 05:57:53;;;;;;;0.40;0.40;;;;;;;6.86;100.00;96151.81;5086145;28;20486;-67
2023/11/24 06:00:20;;;;;;;0.40;0.40;;;;;;;6.35;100.00;96164.28;5086274;28;20060;-67
2023/11/24 06:02:47;;;;;;;0.30;0.30;;;;;;;6.38;100.00;96160.00;5086477;28;20056;-67
2023/11/24 06:05:15;;;;;;;0.40;0.40;;;;;;;6.65;100.00;96151.47;5086402;28;20554;-68
2023/11/24 06:07:42;;;;;;;0.40;0.40;;;;;;;6.81;100.00;96154.88;5086305;28;20047;-69
2023/11/24 06:10:09;;;;;;;0.40;0.40;;;;;;;6.97;100.00;96141.78;5086494;28;20146;-70
2023/11/24 06:12:36;;;;;;;0.40;0.40;;;;;;;7.00;100.00;96135.53;5086248;28;20502;-70
2023/11/24 06:15:04;;;;;;;0.40;0.40;;;;;;;6.45;100.00;96058.38;5086710;28;20052;-69
2023/11/24 06:17:31;;;;;;;0.40;0.40;;;;;;;7.27;100.00;96139.88;5086453;28;20056;-70
2023/11/24 06:19:58;;;;;;;0.40;0.40;;;;;;;7.16;100.00;96100.38;5087214;28;20063;-69
2023/11/24 06:22:25;;;;;;;0.40;0.40;;;;;;;7.47;100.00;96148.84;5068325;28;20056;-69
2023/11/24 06:24:53;;;;;;;0.40;0.40;;;;;;;7.47;100.00;96135.88;5068744;28;20044;-68
2023/11/24 06:27:20;;;;;;;0.40;0.40;;;;;;;4.64;100.00;95671.16;5068054;28;20071;-69
2023/11/24 06:29:47;;;;;;;0.40;0.40;;;;;;;7.78;100.00;96153.22;5068405;28;20479;-69
2023/11/24 06:32:14;;;;;;;0.40;0.40;;;;;;;7.66;100.00;96212.91;5086496;28;20410;-69
2023/11/24 06:34:41;;;;;;;0.40;0.40;;;;;;;7.71;100.00;96159.41;5086471;28;20056;-68
2023/11/24 06:37:08;;;;;;;0.40;0.40;;;;;;;7.51;100.00;96111.91;5067712;28;20048;-69
2023/11/24 06:39:35;;;;;;;0.40;0.40;;;;;;;7.54;100.00;96099.31;5086319;28;20154;-70
2023/11/24 06:42:04;;;;;;;0.30;0.30;;;;;;;7.88;100.00;96147.03;5067835;28;20066;-69
2023/11/24 06:44:31;;;;;;;0.40;0.40;;;;;;;7.51;99.03;96147.72;5067808;28;20431;-69
2023/11/24 06:46:59;;;;;;;0.50;0.50;;;;;;;7.21;99.67;96075.28;5067665;28;20052;-70
2023/11/24 06:49:29;;;;;;;0.40;0.40;;;;;;;5.48;100.00;95778.78;5050439;28;20041;-67
2023/11/24 06:51:56;;;;;;;0.40;0.40;;;;;;;8.01;99.74;96135.41;5064614;28;20511;-66
2023/11/24 06:54:23;;;;;;;0.40;0.40;;;;;;;6.86;98.74;95959.16;5056634;28;20496;-65
2023/11/24 06:56:50;;;;;;;0.40;0.40;;;;;;;8.02;99.12;96133.41;5061057;28;20056;-67
2023/11/24 06:59:17;;;;;;;0.40;0.40;;;;;;;8.03;98.78;96135.00;5045918;28;20616;-60
2023/11/24 07:01:44;;;;;;;0.40;0.40;;;;;;;7.64;96.36;96044.38;5060964;28;20052;-69
2023/11/24 07:04:49;;;;;;;0.40;0.40;;;;;;;8.20;97.37;96123.38;5062968;28;20051;-67
2023/11/24 07:07:38;;;;;;;0.40;0.40;;;;;;;8.29;97.97;96118.38;5064109;28;20070;-68
2023/11/24 07:11:04;;;;;;;0.40;0.40;;;;;;;8.37;97.88;96103.50;5064063;28;20113;-60
2023/11/24 07:20:54;;;;;;;0.40;0.40;;;;;;;8.42;98.30;96078.31;5064357;28;20064;-69
2023/11/24 07:23:21;;;;;;;0.40;0.40;;;;;;;8.05;97.55;96019.59;5064465;28;20053;-61
2023/11/24 07:25:48;;;;;;;0.40;0.40;;;;;;;7.97;97.70;95976.56;5064197;28;20049;-62
2023/11/24 07:28:15;;;;;;;0.40;0.40;;;;;;;8.55;97.87;96071.34;5062572;28;20083;-71
2023/11/24 07:30:42;;;;;;;0.40;0.40;;;;;;;8.90;96.85;96077.16;5047778;28;20064;-70
2023/11/24 07:33:09;;;;;;;0.40;0.40;;;;;;;9.13;96.50;96080.50;5026313;28;20805;-66
2023/11/24 07:35:37;;;;;;;0.40;0.40;;;;;;;9.09;94.26;96068.63;5061774;28;20400;-65
2023/11/24 07:38:08;;;;;;;0.40;0.40;;;;;;;9.21;95.25;96076.59;5064003;28;20041;-69
2023/11/24 07:40:35;;;;;;;0.40;0.40;;;;;;;9.11;96.06;96025.63;5061985;28;20091;-70
2023/11/24 07:43:03;;;;;;;0.40;0.40;;;;;;;9.60;95.95;96066.56;5060731;28;20051;-63
2023/11/24 07:45:29;;;;;;;0.50;0.50;;;;;;;9.70;94.76;96038.16;5058952;28;20072;-64
2023/11/24 07:47:56;;;;;;;0.47;0.47;;;;;;;10.04;91.36;96069.91;5062995;28;20450;-67
2023/11/24 07:50:23;;;;;;;0.50;0.50;;;;;;;9.98;91.36;96010.59;5061586;28;20564;-73
2023/11/24 07:52:51;;;;;;;0.50;0.50;;;;;;;10.06;90.57;96001.13;5051466;28;20056;-72
2023/11/24 07:55:22;;;;;;;0.40;0.40;;;;;;;9.36;89.70;95857.19;5055843;28;20102;-71
2023/11/24 07:57:48;;;;;;;0.50;0.50;;;;;;;10.09;88.94;95966.38;5060812;28;20067;-63
2023/11/24 08:00:17;;;;;;;0.50;0.50;;;;;;;10.87;87.95;96047.50;5057706;28;20127;-68
2023/11/24 08:02:44;;;;;;;0.50;0.50;;;;;;;11.20;87.18;96031.25;5037794;28;20102;-64
2023/11/24 08:05:11;;;;;;;0.50;0.50;;;;;;;11.27;87.61;96030.44;5062090;28;20041;-63
2023/11/24 08:07:39;;;;;;;0.50;0.50;;;;;;;11.44;87.42;96024.06;5058189;28;20048;-62
2023/11/24 08:10:06;;;;;;;0.50;0.50;;;;;;;11.36;86.95;95973.41;5059878;28;20051;-63
2023/11/24 08:12:33;;;;;;;0.50;0.50;;;;;;;11.47;86.33;95974.16;5062051;28;20471;-62
2023/11/24 08:15:00;;;;;;;0.50;0.50;;;;;;;10.24;87.19;95752.91;5062097;28;20049;-70
2023/11/24 08:17:28;;;;;;;0.60;0.60;;;;;;;11.86;86.78;95971.22;5059662;28;20056;-68
2023/11/24 08:19:54;;;;;;;0.60;0.60;;;;;;;12.33;85.66;96003.06;5062083;28;20576;-63
2023/11/24 08:22:21;;;;;;;0.50;0.50;;;;;;;11.82;85.64;95924.06;5044328;28;20065;-63
2023/11/24 08:24:48;;;;;;;0.50;0.50;;;;;;;11.36;89.32;96011.41;5035279;28;20044;-62
2023/11/24 08:27:15;;;;;;;0.50;0.50;;;;;;;11.21;92.03;96009.84;5063015;28;20582;-66
2023/11/24 08:29:42;;;;;;;0.52;0.52;;;;;;;10.82;93.54;95931.56;5057563;28;20079;-63
2023/11/24 08:32:10;;;;;;;0.50;0.50;;;;;;;11.62;92.16;95985.94;5061787;28;20074;-65
2023/11/24 08:34:37;;;;;;;0.45;0.45;;;;;;;11.79;89.21;95958.16;5061675;28;20056;-61
2023/11/24 08:37:06;;;;;;;0.50;0.50;;;;;;;11.24;89.79;95864.94;5042607;28;20361;-68
2023/11/24 08:39:33;;;;;;;0.50;0.50;;;;;;;11.45;87.61;95809.34;5049820;28;20044;-63
2023/11/24 08:42:01;;;;;;;0.50;0.50;;;;;;;12.79;85.91;95972.91;5032926;28;20063;-65
2023/11/24 08:44:28;;;;;;;0.60;0.60;;;;;;;13.29;83.28;95974.84;5044196;28;20139;-68
2023/11/24 08:46:54;;;;;;;0.57;0.57;;;;;;;13.63;82.96;95964.50;5061572;28;20062;-66
2023/11/24 08:49:22;;;;;;;0.60;0.60;;;;;;;13.10;81.27;95892.03;5042627;28;20049;-63
2023/11/24 08:51:49;;;;;;;0.60;0.60;;;;;;;13.32;82.66;95918.41;5057254;28;20048;-66
2023/11/24 08:54:15;;;;;;;0.57;0.57;;;;;;;13.27;82.09;95896.59;5056450;28;20055;-66
2023/11/24 08:56:43;;;;;;;0.60;0.60;;;;;;;12.06;82.34;95744.72;5060386;28;20056;-63
2023/11/24 08:59:10;;;;;;;0.60;0.60;;;;;;;12.36;85.74;95933.59;5060629;28;20060;-65
2023/11/24 09:01:37;;;;;;;0.60;0.60;;;;;;;12.38;86.18;95895.09;5059719;28;20118;-60
2023/11/24 09:04:04;;;;;;;0.50;0.50;;;;;;;13.01;85.36;95941.78;5044080;28;20131;-62
2023/11/24 09:06:32;;;;;;;0.60;0.60;;;;;;;12.93;84.67;95904.09;5059474;28;20049;-68
2023/11/24 09:08:58;;;;;;;0.60;0.60;;;;;;;13.19;83.05;95934.03;5043740;28;20045;-71
2023/11/24 09:11:26;;;;;;;0.60;0.60;;;;;;;13.41;82.14;95924.25;5060111;28;20921;-61
2023/11/24 09:13:53;;;;;;;0.60;0.60;;;;;;;13.42;82.58;95917.47;5061914;28;20056;-63
2023/11/24 09:16:20;;;;;;;0.60;0.60;;;;;;;13.48;82.58;95890.75;5060379;28;20477;-61
2023/11/24 09:18:47;;;;;;;0.63;0.63;;;;;;;13.64;82.34;95842.88;5044862;28;20225;-62
2023/11/24 09:21:14;;;;;;;0.70;0.70;;;;;;;14.27;80.76;95907.97;5043828;28;20128;-61
2023/11/24 09:23:41;;;;;;;0.60;0.60;;;;;;;13.58;78.75;95788.88;5062668;28;20071;-63
2023/11/24 09:26:09;;;;;;;0.70;0.70;;;;;;;14.65;77.28;95889.84;5041826;28;20132;-63
2023/11/24 09:28:36;;;;;;;0.60;0.60;;;;;;;14.70;78.06;95892.13;5063122;28;20056;-60
2023/11/24 09:31:08;;;;;;;0.63;0.63;;;;;;;14.76;78.03;95887.66;5064593;28;20144;-65
2023/11/24 09:33:39;;;;;;;0.60;0.60;;;;;;;14.56;77.79;95819.91;5048052;28;20541;-60
2023/11/24 09:36:06;;;;;;;0.60;0.60;;;;;;;15.24;76.84;95865.59;5047388;28;20058;-61
2023/11/24 09:38:33;;;;;;;0.60;0.60;;;;;;;14.67;75.08;95748.81;5033844;28;20052;-60
2023/11/24 09:41:11;;;;;;;0.60;0.60;;;;;;;15.13;74.19;95795.28;5046556;28;20497;-67
2023/11/24 09:43:38;;;;;;;0.60;0.60;;;;;;;15.54;72.39;95845.09;5048138;28;20048;-63
2023/11/24 09:46:07;;;;;;;0.70;0.70;;;;;;;14.56;73.22;95747.44;5064146;28;20045;-63
2023/11/24 09:48:35;;;;;;;0.55;0.55;;;;;;;14.28;74.51;95761.91;5046484;28;20048;-65
2023/11/24 09:51:05;;;;;;;0.65;0.65;;;;;;;14.59;78.56;95852.53;5065756;28;20054;-66
2023/11/24 09:53:36;;;;;;;0.50;0.50;;;;;;;14.31;80.53;95852.97;5066387;28;20131;-64
2023/11/24 09:56:04;;;;;;;0.60;0.60;;;;;;;13.85;82.68;95848.13;5065645;28;20106;-65
2023/11/24 09:58:31;;;;;;;0.50;0.50;;;;;;;13.62;83.95;95846.06;5065565;28;20805;-62
2023/11/24 10:01:16;;;;;;;0.60;0.60;;;;;;;13.07;84.31;95792.78;5065591;28;20052;-67
2023/11/24 10:03:48;;;;;;;0.60;0.60;;;;;;;13.53;83.45;95792.94;5064053;28;20064;-61
2023/11/24 10:06:15;;;;;;;0.60;0.60;;;;;;;12.25;82.55;95568.44;5044091;28;20061;-63
2023/11/24 10:08:42;;;;;;;0.60;0.60;;;;;;;13.50;83.04;95820.78;5060534;28;20072;-60
2023/11/24 10:11:13;;;;;;;0.60;0.60;;;;;;;12.57;83.51;95664.00;5065256;28;20449;-69
2023/11/24 10:13:44;;;;;;;0.60;0.60;;;;;;;13.91;80.74;95790.75;5065677;28;20115;-66
2023/11/24 10:16:13;;;;;;;0.60;0.60;;;;;;;13.62;82.26;95812.66;5032984;28;20045;-61
2023/11/24 10:18:41;;;;;;;0.60;0.60;;;;;;;14.06;82.26;95808.03;5052627;28;20061;-62
2023/11/24 10:21:11;;;;;;;0.60;0.60;;;;;;;14.40;81.65;95800.31;5046920;28;20072;-61
2023/11/24 10:23:57;;;;;;;0.60;0.60;;;;;;;11.54;81.10;95368.81;5049167;28;20057;-68
2023/11/24 10:26:25;;;;;;;0.60;0.60;;;;;;;14.25;80.30;95765.56;5045156;28;20487;-64
2023/11/24 10:28:54;;;;;;;0.55;0.55;;;;;;;14.72;78.74;95787.34;5034952;28;20054;-63
2023/11/24 10:31:21;;;;;;;0.60;0.60;;;;;;;13.67;78.04;95581.25;5063532;28;20141;-63
2023/11/24 10:33:48;;;;;;;0.60;0.60;;;;;;;15.29;78.13;95775.81;5051266;28;20060;-65
2023/11/24 10:36:17;;;;;;;0.60;0.60;;;;;;;15.07;76.84;95705.78;5042195;28;20474;-63
2023/11/24 10:38:53;;;;;;;0.60;0.60;;;;;;;15.77;76.38;95769.59;5063595;28;20048;-63
2023/11/24 10:41:23;;;;;;;0.60;0.60;;;;;;;15.88;74.50;95770.13;5058144;28;20068;-63
2023/11/24 10:43:51;;;;;;;0.60;0.60;;;;;;;15.35;72.50;95670.09;5041032;28;20048;-69
2023/11/24 10:46:22;;;;;;;0.60;0.60;;;;;;;15.39;73.42;95682.75;5058966;28;20126;-65
2023/11/24 10:49:03;;;;;;;0.60;0.60;;;;;;;15.93;73.81;95750.81;5064563;28;20604;-64
2023/11/24 10:52:01;;;;;;;0.60;0.60;;;;;;;16.02;73.55;95739.03;5064637;28;20122;-68
2023/11/24 10:54:30;;;;;;;0.60;0.60;;;;;;;16.01;73.48;95738.25;5063750;28;20056;-65
2023/11/24 10:56:58;;;;;;;0.60;0.60;;;;;;;16.11;72.66;95731.63;5063095;28;20050;-65
2023/11/24 10:59:34;;;;;;;0.70;0.70;;;;;;;15.53;71.56;95643.34;5063498;28;20052;-67
2023/11/24 11:02:05;;;;;;;0.60;0.60;;;;;;;16.29;71.13;95731.97;5061302;28;20052;-66
2023/11/24 11:04:37;;;;;;;0.60;0.60;;;;;;;16.40;70.66;95726.88;5061823;28;20083;-64
2023/11/24 11:07:14;;;;;;;0.65;0.65;;;;;;;16.52;70.22;95720.56;5061088;28;20048;-66
2023/11/24 11:09:51;;;;;;;0.60;0.60;;;;;;;15.78;71.12;95716.09;5060736;28;20060;-64
2023/11/24 11:12:43;;;;;;;0.68;0.68;;;;;;;15.94;72.91;95718.91;5062072;28;20048;-66
2023/11/24 11:15:10;;;;;;;0.60;0.60;;;;;;;13.63;74.17;95402.47;5047892;28;20456;-64
2023/11/24 11:17:38;;;;;;;0.60;0.60;;;;;;;13.31;75.87;95435.69;5064217;28;20169;-67
2023/11/24 11:20:12;;;;;;;0.60;0.60;;;;;;;15.14;78.02;95716.00;5064771;28;20048;-66
2023/11/24 11:22:41;;;;;;;0.60;0.60;;;;;;;14.77;77.94;95688.50;5046290;28;20563;-64
2023/11/24 11:25:17;;;;;;;0.60;0.60;;;;;;;13.95;82.17;95713.56;5064427;28;20056;-64
2023/11/24 11:27:47;;;;;;;0.60;0.60;;;;;;;12.72;85.67;95545.94;5064243;28;20478;-66
2023/11/24 11:30:18;;;;;;;0.60;0.60;;;;;;;14.13;83.24;95707.66;5058858;28;20045;-66
2023/11/24 11:32:46;;;;;;;0.60;0.60;;;;;;;14.34;82.69;95704.50;5042557;28;20140;-65
2023/11/24 11:35:14;;;;;;;0.60;0.60;;;;;;;13.67;83.47;95686.22;5066520;28;20048;-65
2023/11/24 11:37:41;;;;;;;0.60;0.60;;;;;;;13.83;84.50;95697.44;5071866;28;20175;-67
2023/11/24 11:40:14;;;;;;;0.60;0.60;;;;;;;13.81;83.31;95657.34;5044774;28;20040;-66
2023/11/24 11:43:05;;;;;;;0.67;0.67;;;;;;;14.30;83.09;95695.44;5063900;28;20052;-66
2023/11/24 11:45:33;;;;;;;0.60;0.60;;;;;;;14.10;81.36;95652.84;5060215;28;20052;-62
2023/11/24 11:48:02;;;;;;;0.60;0.60;;;;;;;13.77;81.55;95539.75;5045906;28;20127;-65